Time;durP1;ratioP1;P1;durP2;ratioP2;P2;SDS_P1;SDS_P2;PMS_P1;PMS_P2;Temp;Humidity;BMP_temperature;BMP_pressure;BME280_temperature;BME280_humidity;BME280_pressure;Samples;Min_cycle;Max_cycle;Signal;HPM_P1;HPM_P2
2021/12/20 00:00:43;;;;;;;17.15;3.40;;;3.90;99.90;;;;;;2096860;28;20405;-68
2021/12/20 00:01:45;;;;;;;12.35;3.20;;;3.90;99.90;;;;;;2097346;28;20091;-68
2021/12/20 00:02:49;;;;;;;11.43;3.40;;;3.90;99.90;;;;;;2097974;28;20074;-68
2021/12/20 00:03:50;;;;;;;10.18;3.05;;;3.80;99.90;;;;;;2098065;28;20033;-68
2021/12/20 00:04:52;;;;;;;15.05;3.25;;;3.80;99.90;;;;;;2098099;28;20029;-68
2021/12/20 00:05:53;;;;;;;11.45;3.70;;;3.70;99.90;;;;;;2097601;28;20108;-68
2021/12/20 00:06:53;;;;;;;13.32;3.45;;;3.70;99.90;;;;;;2097516;28;20021;-68
2021/12/20 00:07:54;;;;;;;11.25;3.35;;;3.70;99.90;;;;;;2097476;28;20041;-68
2021/12/20 00:08:54;;;;;;;11.38;3.10;;;3.70;99.90;;;;;;2097802;28;20028;-69
2021/12/20 00:09:55;;;;;;;10.18;3.00;;;3.70;99.90;;;;;;2097688;28;20013;-68
2021/12/20 00:10:55;;;;;;;9.63;3.10;;;3.70;99.90;;;;;;2098050;28;20016;-68
2021/12/20 00:11:56;;;;;;;12.93;3.50;;;3.60;99.90;;;;;;2097655;28;20028;-68
2021/12/20 00:12:57;;;;;;;10.23;3.40;;;3.60;99.90;;;;;;2097841;28;20146;-68
2021/12/20 00:13:57;;;;;;;13.80;3.30;;;3.60;99.90;;;;;;2097802;28;20020;-68
2021/12/20 00:14:58;;;;;;;13.52;3.40;;;3.60;99.90;;;;;;2097885;28;20035;-69
2021/12/20 00:15:59;;;;;;;11.82;3.15;;;3.60;99.90;;;;;;2097839;28;20031;-68
2021/12/20 00:16:59;;;;;;;12.18;3.30;;;3.60;99.90;;;;;;2097915;28;20107;-69
2021/12/20 00:18:00;;;;;;;10.18;3.40;;;3.50;99.90;;;;;;2096770;28;20064;-68
2021/12/20 00:19:01;;;;;;;10.98;2.92;;;3.50;99.90;;;;;;2097386;28;20098;-68
2021/12/20 00:20:02;;;;;;;10.70;3.22;;;3.50;99.90;;;;;;2097278;28;20036;-69
2021/12/20 00:21:03;;;;;;;9.63;3.00;;;3.50;99.90;;;;;;2097908;28;20058;-68
2021/12/20 00:22:04;;;;;;;10.65;3.25;;;3.50;99.90;;;;;;2097299;28;20463;-69
2021/12/20 00:23:04;;;;;;;11.38;3.20;;;3.50;99.90;;;;;;2097213;28;20028;-69
2021/12/20 00:24:05;;;;;;;7.03;2.80;;;3.60;99.90;;;;;;2088965;28;20048;-68
2021/12/20 00:25:07;;;;;;;10.02;2.72;;;3.60;99.90;;;;;;2097404;28;20035;-69
2021/12/20 00:26:09;;;;;;;10.18;2.72;;;3.60;99.90;;;;;;2097963;28;20036;-69
2021/12/20 00:27:11;;;;;;;8.02;2.67;;;3.70;99.90;;;;;;2097803;28;20086;-71
2021/12/20 00:28:12;;;;;;;10.57;3.03;;;3.70;99.90;;;;;;2097448;28;20024;-69
2021/12/20 00:29:13;;;;;;;9.10;2.75;;;3.70;99.90;;;;;;2097885;28;20024;-69
2021/12/20 00:30:13;;;;;;;9.25;2.65;;;3.60;99.90;;;;;;2097778;28;20070;-68
2021/12/20 00:31:14;;;;;;;7.40;2.90;;;3.60;99.90;;;;;;2098187;28;20024;-69
2021/12/20 00:32:16;;;;;;;7.38;2.40;;;3.60;99.90;;;;;;2097873;28;20020;-69
2021/12/20 00:33:17;;;;;;;9.40;2.60;;;3.60;99.90;;;;;;2098224;28;20482;-69
2021/12/20 00:34:18;;;;;;;10.15;2.50;;;3.60;99.90;;;;;;2097984;28;20099;-68
2021/12/20 00:35:20;;;;;;;8.60;2.80;;;3.50;99.90;;;;;;2097873;28;20479;-69
2021/12/20 00:36:22;;;;;;;8.07;2.58;;;3.50;99.90;;;;;;2097565;28;20369;-69
2021/12/20 00:40:21;;;;;;;8.27;2.70;;;3.40;99.90;;;;;;2097830;28;20072;-68
2021/12/20 00:41:22;;;;;;;10.32;2.70;;;3.40;99.90;;;;;;2097748;28;20071;-70
2021/12/20 00:42:23;;;;;;;9.80;2.63;;;3.30;99.90;;;;;;2097575;28;20036;-69
2021/12/20 00:43:24;;;;;;;9.73;2.85;;;3.30;99.90;;;;;;2097753;28;20085;-69
2021/12/20 00:44:24;;;;;;;13.75;3.30;;;3.30;99.90;;;;;;2096723;28;20034;-69
2021/12/20 00:45:28;;;;;;;9.20;2.92;;;3.30;99.90;;;;;;2097093;28;20036;-69
2021/12/20 00:46:29;;;;;;;10.27;2.92;;;3.30;99.90;;;;;;2097965;28;20036;-69
2021/12/20 00:47:29;;;;;;;11.73;3.17;;;3.20;99.90;;;;;;2097133;28;20025;-68
2021/12/20 00:48:30;;;;;;;9.48;3.05;;;3.20;99.90;;;;;;2088546;28;20071;-69
2021/12/20 00:49:31;;;;;;;8.70;2.70;;;3.20;99.90;;;;;;2097250;28;20036;-69
2021/12/20 00:50:33;;;;;;;11.20;3.00;;;3.10;99.90;;;;;;2097908;28;20047;-68
2021/12/20 00:51:34;;;;;;;11.68;3.22;;;3.10;99.90;;;;;;2097730;28;20032;-68
2021/12/20 00:52:35;;;;;;;8.95;3.13;;;3.10;99.90;;;;;;2097362;28;20488;-68
2021/12/20 00:53:35;;;;;;;14.43;3.42;;;3.10;99.90;;;;;;2097142;28;20060;-68
2021/12/20 00:54:36;;;;;;;11.45;3.00;;;3.10;99.90;;;;;;2097456;28;20403;-68
2021/12/20 00:55:37;;;;;;;10.30;3.20;;;3.00;99.90;;;;;;2097391;28;20036;-68
2021/12/20 00:56:38;;;;;;;11.75;3.05;;;3.00;99.90;;;;;;2097393;28;20024;-69
2021/12/20 00:57:38;;;;;;;9.95;3.05;;;3.00;99.90;;;;;;2097155;28;20157;-69
2021/12/20 00:58:39;;;;;;;9.98;3.00;;;3.00;99.90;;;;;;2097801;28;20036;-69
2021/12/20 00:59:39;;;;;;;8.32;2.75;;;3.00;99.90;;;;;;2097680;28;20115;-69
2021/12/20 01:00:45;;;;;;;6.07;2.50;;;3.00;99.90;;;;;;2096804;28;20118;-69
2021/12/20 01:01:46;;;;;;;8.00;2.60;;;2.90;99.90;;;;;;2096880;28;20044;-70
2021/12/20 01:02:47;;;;;;;10.57;2.90;;;2.90;99.90;;;;;;2097681;28;20021;-68
2021/12/20 01:03:48;;;;;;;8.45;2.60;;;2.90;99.90;;;;;;2097510;28;20105;-69
2021/12/20 01:04:49;;;;;;;10.82;2.60;;;2.90;99.90;;;;;;2097663;28;20107;-68
2021/12/20 01:05:49;;;;;;;9.98;2.90;;;2.90;99.90;;;;;;2097484;28;20032;-69
2021/12/20 01:06:50;;;;;;;13.45;3.15;;;2.90;99.90;;;;;;2088410;28;20032;-68
2021/12/20 01:07:52;;;;;;;10.13;3.13;;;2.90;99.90;;;;;;2088269;28;20032;-68
2021/12/20 01:08:53;;;;;;;10.07;2.60;;;2.90;99.90;;;;;;2097389;28;20078;-68
2021/12/20 01:09:57;;;;;;;11.35;3.25;;;2.90;99.90;;;;;;2097428;28;20434;-67
2021/12/20 01:11:00;;;;;;;9.90;2.90;;;2.80;99.90;;;;;;2097356;28;20044;-67
2021/12/20 01:12:05;;;;;;;11.50;3.17;;;2.80;99.90;;;;;;2097248;28;20116;-68
2021/12/20 01:13:06;;;;;;;13.98;3.05;;;2.80;99.90;;;;;;2101676;28;20040;-69
2021/12/20 01:14:06;;;;;;;9.02;2.80;;;2.80;99.90;;;;;;2101069;28;20352;-68
2021/12/20 01:15:13;;;;;;;13.50;3.03;;;2.80;99.90;;;;;;2102502;28;20056;-69
2021/12/20 01:16:14;;;;;;;10.98;2.88;;;2.80;99.90;;;;;;2099560;28;20852;-69
2021/12/20 01:17:14;;;;;;;9.18;2.88;;;2.80;99.90;;;;;;2097446;28;20013;-69
2021/12/20 01:18:16;;;;;;;11.23;3.03;;;2.70;99.90;;;;;;2088614;28;20018;-68
2021/12/20 01:19:17;;;;;;;8.48;2.90;;;2.70;99.90;;;;;;2088564;28;20032;-70
2021/12/20 01:20:18;;;;;;;7.53;2.72;;;2.70;99.90;;;;;;2097032;28;20131;-70
2021/12/20 01:21:19;;;;;;;8.38;2.90;;;2.70;99.90;;;;;;2097371;28;20039;-71
2021/12/20 01:22:20;;;;;;;8.02;2.78;;;2.60;99.90;;;;;;2097404;28;20025;-71
2021/12/20 01:23:20;;;;;;;9.63;3.08;;;2.60;99.90;;;;;;2097582;28;20082;-71
2021/12/20 01:24:21;;;;;;;11.00;2.70;;;2.60;99.90;;;;;;2097552;28;20035;-71
2021/12/20 01:25:23;;;;;;;8.20;2.90;;;2.60;99.90;;;;;;2097501;28;20040;-71
2021/12/20 01:26:23;;;;;;;11.40;2.90;;;2.60;99.90;;;;;;2097368;28;20024;-69
2021/12/20 01:27:24;;;;;;;12.70;3.00;;;2.60;99.90;;;;;;2097656;28;20032;-69
2021/12/20 01:28:24;;;;;;;12.82;3.45;;;2.60;99.90;;;;;;2096250;28;20127;-69
2021/12/20 01:29:25;;;;;;;9.77;2.90;;;2.60;99.90;;;;;;2096690;28;20033;-69
2021/12/20 01:30:27;;;;;;;13.27;2.97;;;2.50;99.90;;;;;;2097347;28;20107;-70
2021/12/20 01:31:27;;;;;;;10.05;2.65;;;2.50;99.90;;;;;;2097069;28;20036;-69
2021/12/20 01:32:28;;;;;;;9.27;2.92;;;2.50;99.90;;;;;;2097320;28;20063;-70
2021/12/20 01:33:28;;;;;;;8.63;2.35;;;2.50;99.90;;;;;;2097354;28;20059;-70
2021/12/20 01:34:29;;;;;;;9.05;2.80;;;2.50;99.90;;;;;;2097284;28;20033;-70
2021/12/20 01:35:29;;;;;;;8.93;2.47;;;2.50;99.90;;;;;;2096648;28;20020;-70
2021/12/20 01:36:31;;;;;;;8.90;2.63;;;2.40;99.90;;;;;;2096704;28;20494;-70
2021/12/20 01:37:31;;;;;;;9.68;2.70;;;2.40;99.90;;;;;;2097166;28;20103;-69
2021/12/20 01:38:32;;;;;;;6.85;2.20;;;2.50;99.90;;;;;;2096876;28;20388;-70
2021/12/20 01:39:32;;;;;;;7.50;2.40;;;2.40;99.90;;;;;;2097273;28;20032;-69
2021/12/20 01:40:35;;;;;;;8.35;2.17;;;2.40;99.90;;;;;;2097262;28;20048;-69
2021/12/20 01:41:43;;;;;;;5.80;1.95;;;2.40;99.90;;;;;;2096951;28;20070;-69
2021/12/20 01:42:44;;;;;;;6.13;1.95;;;2.40;99.90;;;;;;2097254;28;20032;-70
2021/12/20 01:43:45;;;;;;;5.90;2.17;;;2.40;99.90;;;;;;2097312;28;20021;-69
2021/12/20 01:44:48;;;;;;;7.35;2.28;;;2.30;99.90;;;;;;2097156;28;20035;-69
2021/12/20 01:45:50;;;;;;;6.03;2.20;;;2.30;99.90;;;;;;2097196;28;20024;-69
2021/12/20 01:46:51;;;;;;;5.82;2.00;;;2.30;99.90;;;;;;2096882;28;20037;-69
2021/12/20 01:48:02;;;;;;;5.90;2.20;;;2.30;99.90;;;;;;2096668;28;20024;-69
2021/12/20 01:49:07;;;;;;;9.70;2.45;;;2.30;99.90;;;;;;2097288;28;20032;-69
2021/12/20 01:51:46;;;;;;;6.47;2.20;;;2.30;99.90;;;;;;2095909;28;20478;-69
2021/12/20 01:52:48;;;;;;;5.75;1.80;;;2.20;99.90;;;;;;2097548;28;20552;-69
2021/12/20 01:53:48;;;;;;;8.88;2.33;;;2.20;99.90;;;;;;2097443;28;20035;-69
2021/12/20 01:54:49;;;;;;;3.35;1.92;;;2.20;99.90;;;;;;2097410;28;20025;-69
2021/12/20 01:55:51;;;;;;;3.55;1.80;;;2.20;99.90;;;;;;2096606;28;20033;-70
2021/12/20 01:56:52;;;;;;;5.15;1.75;;;2.20;99.90;;;;;;2097515;28;20013;-70
2021/12/20 01:57:53;;;;;;;6.45;2.20;;;2.10;99.90;;;;;;2096942;28;20356;-70
2021/12/20 01:59:01;;;;;;;5.38;1.80;;;2.10;99.90;;;;;;2097489;28;20028;-70
2021/12/20 02:00:15;;;;;;;5.53;2.00;;;2.10;99.90;;;;;;2097197;28;20033;-70
2021/12/20 02:01:23;;;;;;;6.25;2.20;;;2.10;99.90;;;;;;2097517;28;20096;-70
2021/12/20 02:02:24;;;;;;;5.13;1.98;;;2.10;99.90;;;;;;2096978;28;20044;-69
2021/12/20 02:03:24;;;;;;;5.28;2.00;;;2.10;99.90;;;;;;2097222;28;20062;-69
2021/12/20 02:04:27;;;;;;;7.32;2.10;;;2.10;99.90;;;;;;2097225;28;20036;-69
2021/12/20 02:06:44;;;;;;;5.60;1.85;;;2.00;99.90;;;;;;2098902;28;20024;-69
2021/12/20 02:07:51;;;;;;;5.28;1.92;;;2.00;99.90;;;;;;2099231;28;20158;-69
2021/12/20 02:08:52;;;;;;;4.35;1.98;;;2.00;99.90;;;;;;2099139;28;20024;-69
2021/12/20 02:09:53;;;;;;;6.40;2.10;;;2.00;99.90;;;;;;2099397;28;20063;-69
2021/12/20 02:10:57;;;;;;;6.40;2.10;;;1.90;99.90;;;;;;2098714;28;20033;-69
2021/12/20 02:11:58;;;;;;;6.20;1.80;;;1.90;99.90;;;;;;2099209;28;20472;-69
2021/12/20 02:13:00;;;;;;;7.75;1.90;;;1.90;99.90;;;;;;2098269;28;20028;-69
2021/12/20 02:14:01;;;;;;;5.50;1.95;;;1.90;99.90;;;;;;2097568;28;20028;-69
2021/12/20 02:15:02;;;;;;;5.15;1.95;;;1.80;99.90;;;;;;2097367;28;20417;-69
2021/12/20 02:16:03;;;;;;;4.40;1.95;;;1.80;99.90;;;;;;2097114;28;20036;-70
2021/12/20 02:17:04;;;;;;;4.30;1.70;;;1.80;99.90;;;;;;2097191;28;20090;-70
2021/12/20 02:18:04;;;;;;;5.63;1.92;;;1.80;99.90;;;;;;2095842;28;20031;-70
2021/12/20 02:19:09;;;;;;;3.63;1.80;;;1.80;99.90;;;;;;2096822;28;20068;-69
2021/12/20 02:20:23;;;;;;;5.65;1.80;;;1.70;99.90;;;;;;2097213;28;20737;-69
2021/12/20 02:21:24;;;;;;;4.38;1.90;;;1.70;99.90;;;;;;2097067;28;20028;-69
2021/12/20 02:22:24;;;;;;;3.30;1.75;;;1.70;99.90;;;;;;2097360;28;20056;-69
2021/12/20 02:23:25;;;;;;;4.07;1.70;;;1.70;99.90;;;;;;2096989;28;20093;-69
2021/12/20 02:24:26;;;;;;;4.60;1.83;;;1.70;99.90;;;;;;2096538;28;20483;-69
2021/12/20 02:25:30;;;;;;;5.88;1.90;;;1.70;99.90;;;;;;2096597;28;20062;-69
2021/12/20 02:26:31;;;;;;;6.18;2.10;;;1.60;99.90;;;;;;2096371;28;20090;-69
2021/12/20 02:27:31;;;;;;;4.03;1.95;;;1.70;99.90;;;;;;2096418;28;20062;-69
2021/12/20 02:28:38;;;;;;;5.18;1.73;;;1.60;99.90;;;;;;2096466;28;20047;-70
2021/12/20 02:29:45;;;;;;;5.38;1.67;;;1.60;99.90;;;;;;2097056;28;20557;-70
2021/12/20 02:37:28;;;;;;;5.25;2.00;;;1.50;99.90;;;;;;2096260;28;20039;-69
2021/12/20 02:38:29;;;;;;;5.35;2.00;;;1.50;99.90;;;;;;2095902;28;20059;-69
2021/12/20 02:39:30;;;;;;;5.25;1.98;;;1.50;99.90;;;;;;2096315;28;20050;-69
2021/12/20 02:40:31;;;;;;;6.70;2.00;;;1.50;99.90;;;;;;2096349;28;20119;-68
2021/12/20 02:41:33;;;;;;;4.82;1.88;;;1.40;99.90;;;;;;2096513;28;20043;-69
2021/12/20 02:42:40;;;;;;;7.10;1.98;;;1.40;99.90;;;;;;2096896;28;20036;-69
2021/12/20 02:43:43;;;;;;;6.10;2.05;;;1.50;99.90;;;;;;2096887;28;20032;-69
2021/12/20 02:45:04;;;;;;;3.53;1.77;;;1.40;99.90;;;;;;2096891;28;20592;-69
2021/12/20 02:46:10;;;;;;;6.43;2.20;;;1.40;99.90;;;;;;2096776;28;20420;-69
2021/12/20 02:47:15;;;;;;;5.03;2.00;;;1.40;99.90;;;;;;2096940;28;20017;-69
2021/12/20 02:48:16;;;;;;;4.22;2.20;;;1.40;99.90;;;;;;2096425;28;20055;-69
2021/12/20 02:49:22;;;;;;;4.95;2.00;;;1.40;99.90;;;;;;2096918;28;20401;-69
2021/12/20 02:50:23;;;;;;;6.30;2.03;;;1.40;99.90;;;;;;2099880;28;20401;-69
2021/12/20 02:51:26;;;;;;;6.20;2.17;;;1.40;99.90;;;;;;2087681;28;20036;-69
2021/12/20 02:52:26;;;;;;;6.30;2.05;;;1.40;99.90;;;;;;2096389;28;20024;-69
2021/12/20 02:53:27;;;;;;;5.18;1.95;;;1.40;99.90;;;;;;2096939;28;20115;-70
2021/12/20 02:54:27;;;;;;;6.30;2.20;;;1.40;99.90;;;;;;2096856;28;20071;-70
2021/12/20 02:55:28;;;;;;;6.20;2.13;;;1.40;99.90;;;;;;2096856;28;20036;-69
2021/12/20 02:56:29;;;;;;;7.93;2.10;;;1.40;99.90;;;;;;2096709;28;20090;-69
2021/12/20 02:57:29;;;;;;;5.40;2.20;;;1.40;99.90;;;;;;2096258;28;20032;-69
2021/12/20 02:58:30;;;;;;;5.10;2.10;;;1.40;99.90;;;;;;2095888;28;20029;-69
2021/12/20 02:59:31;;;;;;;5.30;2.10;;;1.40;99.90;;;;;;2096888;28;20076;-70
2021/12/20 03:00:31;;;;;;;5.40;2.10;;;1.40;99.90;;;;;;2096182;28;20079;-70
2021/12/20 03:01:33;;;;;;;7.43;2.38;;;1.40;99.90;;;;;;2096004;28;20040;-69
2021/12/20 03:02:33;;;;;;;5.38;2.10;;;1.40;99.90;;;;;;2096080;28;20036;-70
2021/12/20 03:03:34;;;;;;;7.18;2.40;;;1.40;99.90;;;;;;2096028;28;20064;-69
2021/12/20 03:04:36;;;;;;;8.52;2.58;;;1.40;99.90;;;;;;2096711;28;20032;-69
2021/12/20 03:05:37;;;;;;;7.38;2.40;;;1.40;99.90;;;;;;2096760;28;20063;-70
2021/12/20 03:06:54;;;;;;;8.45;2.22;;;1.40;99.90;;;;;;2096784;28;20086;-69
2021/12/20 03:07:55;;;;;;;8.50;2.60;;;1.40;99.90;;;;;;2098034;28;20448;-69
2021/12/20 03:08:57;;;;;;;7.53;2.42;;;1.40;99.90;;;;;;2098369;28;20388;-70
2021/12/20 03:10:02;;;;;;;7.13;2.90;;;1.40;99.90;;;;;;2097860;28;20028;-70
2021/12/20 03:11:03;;;;;;;6.55;2.40;;;1.40;99.90;;;;;;2098030;28;20111;-70
2021/12/20 03:12:06;;;;;;;7.13;2.58;;;1.40;99.90;;;;;;2098144;28;20033;-70
2021/12/20 03:13:07;;;;;;;8.68;2.50;;;1.40;99.90;;;;;;2098477;28;20668;-70
2021/12/20 03:14:15;;;;;;;13.18;3.00;;;1.40;99.90;;;;;;2098508;28;20036;-69
2021/12/20 03:15:22;;;;;;;7.47;2.88;;;1.40;99.90;;;;;;2098490;28;20544;-70
2021/12/20 03:16:23;;;;;;;10.10;2.95;;;1.40;99.90;;;;;;2098458;28;20024;-70
2021/12/20 03:17:23;;;;;;;8.50;2.67;;;1.40;99.90;;;;;;2098246;28;20475;-70
2021/12/20 03:18:24;;;;;;;7.45;2.80;;;1.40;99.90;;;;;;2097923;28;20463;-70
2021/12/20 03:19:25;;;;;;;6.55;2.60;;;1.40;99.90;;;;;;2097905;28;20105;-70
2021/12/20 03:20:26;;;;;;;9.20;2.90;;;1.40;99.90;;;;;;2097996;28;20034;-70
2021/12/20 03:21:27;;;;;;;8.15;2.60;;;1.40;99.90;;;;;;2097937;28;20387;-69
2021/12/20 03:22:27;;;;;;;9.48;2.80;;;1.40;99.90;;;;;;2098056;28;20036;-70
2021/12/20 03:23:28;;;;;;;12.48;2.67;;;1.40;99.90;;;;;;2089463;28;20049;-69
2021/12/20 03:24:28;;;;;;;7.00;2.65;;;1.40;99.90;;;;;;2097773;28;20112;-69
2021/12/20 03:25:29;;;;;;;10.23;2.38;;;1.40;99.90;;;;;;2098343;28;20048;-69
2021/12/20 03:26:30;;;;;;;11.27;2.55;;;1.40;99.90;;;;;;2098046;28;20392;-69
2021/12/20 03:27:30;;;;;;;13.48;2.92;;;1.40;99.90;;;;;;2098418;28;20029;-70
2021/12/20 03:28:31;;;;;;;9.38;2.88;;;1.40;99.90;;;;;;2097862;28;20162;-70
2021/12/20 03:29:31;;;;;;;12.55;2.92;;;1.40;99.90;;;;;;2098295;28;20036;-70
2021/12/20 03:30:32;;;;;;;9.85;2.75;;;1.40;99.90;;;;;;2098350;28;20040;-70
2021/12/20 03:31:33;;;;;;;8.85;2.60;;;1.40;99.90;;;;;;2098101;28;20021;-69
2021/12/20 03:32:33;;;;;;;13.48;2.95;;;1.40;99.90;;;;;;2098268;28;20032;-70
2021/12/20 03:33:34;;;;;;;9.65;2.83;;;1.40;99.90;;;;;;2098168;28;20039;-68
2021/12/20 03:34:42;;;;;;;9.55;2.90;;;1.40;99.90;;;;;;2103326;28;20024;-69
2021/12/20 03:35:42;;;;;;;11.02;2.97;;;1.40;99.90;;;;;;2098331;28;20389;-68
2021/12/20 03:36:43;;;;;;;12.52;2.90;;;1.50;99.90;;;;;;2097936;28;20028;-68
2021/12/20 03:37:43;;;;;;;9.98;2.80;;;1.50;99.90;;;;;;2097744;28;20534;-68
2021/12/20 03:38:44;;;;;;;7.47;2.65;;;1.40;99.90;;;;;;2098154;28;20154;-68
2021/12/20 03:39:44;;;;;;;9.73;2.75;;;1.40;99.90;;;;;;2097612;28;20491;-68
2021/12/20 03:40:45;;;;;;;11.18;2.92;;;1.40;99.90;;;;;;2097640;28;20078;-68
2021/12/20 03:41:46;;;;;;;8.65;2.50;;;1.40;99.90;;;;;;2097951;28;20108;-68
2021/12/20 03:42:47;;;;;;;10.25;2.95;;;1.40;99.90;;;;;;2098289;28;20029;-68
2021/12/20 03:43:47;;;;;;;11.35;2.70;;;1.40;99.90;;;;;;2098310;28;20032;-68
2021/12/20 03:44:48;;;;;;;8.63;2.67;;;1.40;99.90;;;;;;2098171;28;20048;-68
2021/12/20 03:45:51;;;;;;;11.23;2.95;;;1.40;99.90;;;;;;2098016;28;20476;-68
2021/12/20 03:46:51;;;;;;;11.98;3.05;;;1.40;99.90;;;;;;2098114;28;20067;-68
2021/12/20 03:47:52;;;;;;;8.60;2.85;;;1.40;99.90;;;;;;2097104;28;20087;-68
2021/12/20 03:48:53;;;;;;;11.70;2.65;;;1.40;99.90;;;;;;2097686;28;20187;-68
2021/12/20 03:49:53;;;;;;;10.27;2.85;;;1.40;99.90;;;;;;2098339;28;20036;-68
2021/12/20 03:50:56;;;;;;;9.23;2.67;;;1.40;99.90;;;;;;2098434;28;20020;-68
2021/12/20 03:51:56;;;;;;;7.20;2.83;;;1.40;99.90;;;;;;2100387;28;20606;-69
2021/12/20 03:52:57;;;;;;;10.68;3.00;;;1.40;99.90;;;;;;2102395;28;20033;-69
2021/12/20 03:53:57;;;;;;;14.52;3.08;;;1.40;99.90;;;;;;2102940;28;20115;-68
2021/12/20 03:54:59;;;;;;;9.50;2.58;;;1.40;99.90;;;;;;2103110;28;20511;-68
2021/12/20 03:56:01;;;;;;;11.13;2.85;;;1.40;99.90;;;;;;2099692;28;20023;-69
2021/12/20 03:57:03;;;;;;;8.05;2.97;;;1.40;99.90;;;;;;2098701;28;20131;-71
2021/12/20 03:58:04;;;;;;;4.32;2.30;;;1.30;99.90;;;;;;2098060;28;20066;-70
2021/12/20 03:59:04;;;;;;;9.20;2.67;;;1.30;99.90;;;;;;2098392;28;20055;-68
2021/12/20 04:00:09;;;;;;;7.78;2.47;;;1.30;99.90;;;;;;2098623;28;20036;-70
2021/12/20 04:01:13;;;;;;;7.22;2.50;;;1.30;99.90;;;;;;2098428;28;20052;-70
2021/12/20 04:02:18;;;;;;;6.60;2.75;;;1.30;99.90;;;;;;2097552;28;20036;-70
2021/12/20 04:03:19;;;;;;;9.57;2.85;;;1.30;99.90;;;;;;2097995;28;20032;-70
2021/12/20 04:04:19;;;;;;;9.85;2.97;;;1.30;99.90;;;;;;2098462;28;20547;-70
2021/12/20 04:05:20;;;;;;;9.77;2.97;;;1.30;99.90;;;;;;2098186;28;20040;-71
2021/12/20 04:06:21;;;;;;;9.35;2.95;;;1.30;99.90;;;;;;2098253;28;20040;-70
2021/12/20 04:07:21;;;;;;;13.57;3.13;;;1.30;99.90;;;;;;2097564;28;20087;-70
2021/12/20 04:08:22;;;;;;;10.60;3.40;;;1.30;99.90;;;;;;2097209;28;20454;-70
2021/12/20 04:09:22;;;;;;;11.10;3.25;;;1.30;99.90;;;;;;2098285;28;20095;-70
2021/12/20 04:10:23;;;;;;;11.70;3.50;;;1.30;99.90;;;;;;2098354;28;20027;-69
2021/12/20 04:11:24;;;;;;;10.73;3.33;;;1.30;99.90;;;;;;2098161;28;20056;-69
2021/12/20 04:12:24;;;;;;;10.00;3.28;;;1.30;99.90;;;;;;2098227;28;20071;-70
2021/12/20 04:13:26;;;;;;;8.38;3.20;;;1.30;99.90;;;;;;2098339;28;20480;-70
2021/12/20 04:14:27;;;;;;;12.32;3.80;;;1.30;99.90;;;;;;2098273;28;20695;-69
2021/12/20 04:15:27;;;;;;;12.20;3.50;;;1.30;99.90;;;;;;2098135;28;20172;-70
2021/12/20 04:16:29;;;;;;;9.90;3.38;;;1.30;99.90;;;;;;2098069;28;20498;-70
2021/12/20 04:17:30;;;;;;;8.77;2.88;;;1.30;99.90;;;;;;2097487;28;20036;-69
2021/12/20 04:18:31;;;;;;;12.57;3.28;;;1.30;99.90;;;;;;2096461;28;20099;-70
2021/12/20 04:19:32;;;;;;;13.63;3.20;;;1.30;99.90;;;;;;2098046;28;20035;-70
2021/12/20 04:20:32;;;;;;;13.02;3.30;;;1.30;99.90;;;;;;2098187;28;20107;-70
2021/12/20 04:21:33;;;;;;;8.02;3.00;;;1.30;99.90;;;;;;2097904;28;20039;-70
2021/12/20 04:22:34;;;;;;;11.05;3.20;;;1.30;99.90;;;;;;2098192;28;20044;-70
2021/12/20 04:23:35;;;;;;;10.02;3.00;;;1.30;99.90;;;;;;2098078;28;20028;-70
2021/12/20 04:24:35;;;;;;;10.55;3.35;;;1.30;99.90;;;;;;2098079;28;20030;-70
2021/12/20 04:25:36;;;;;;;9.40;3.28;;;1.30;99.90;;;;;;2098013;28;20479;-71
2021/12/20 04:26:36;;;;;;;11.60;3.35;;;1.30;99.90;;;;;;2098083;28;20032;-70
2021/12/20 04:27:37;;;;;;;11.60;3.85;;;1.30;99.90;;;;;;2097531;28;20040;-70
2021/12/20 04:28:39;;;;;;;12.82;4.57;;;1.30;99.90;;;;;;2098017;28;20025;-70
2021/12/20 04:29:39;;;;;;;13.40;3.30;;;1.30;99.90;;;;;;2097931;28;20036;-70
2021/12/20 04:30:40;;;;;;;9.73;2.70;;;1.20;99.90;;;;;;2097966;28;20021;-70
2021/12/20 04:31:41;;;;;;;8.43;2.60;;;1.30;99.90;;;;;;2097797;28;20016;-70
2021/12/20 04:32:44;;;;;;;10.07;2.95;;;1.20;99.90;;;;;;2097211;28;20531;-70
2021/12/20 04:33:45;;;;;;;10.57;2.60;;;1.20;99.90;;;;;;2097283;28;20059;-70
2021/12/20 04:34:46;;;;;;;8.35;2.70;;;1.20;99.90;;;;;;2097191;28;20039;-70
2021/12/20 04:35:47;;;;;;;12.10;2.70;;;1.20;99.90;;;;;;2097224;28;20217;-70
2021/12/20 04:36:48;;;;;;;10.10;2.80;;;1.20;99.90;;;;;;2097898;28;20043;-70
2021/12/20 04:37:50;;;;;;;15.25;2.97;;;1.20;99.90;;;;;;2097383;28;20535;-70
2021/12/20 04:38:51;;;;;;;10.05;2.88;;;1.20;99.90;;;;;;2097941;28;20476;-70
2021/12/20 04:39:51;;;;;;;9.20;2.20;;;1.20;99.90;;;;;;2098069;28;20036;-70
2021/12/20 04:40:52;;;;;;;7.47;2.30;;;1.20;99.90;;;;;;2097291;28;20028;-70
2021/12/20 04:41:52;;;;;;;9.77;2.60;;;1.20;99.90;;;;;;2097150;28;20033;-70
2021/12/20 04:42:58;;;;;;;13.25;2.85;;;1.20;99.90;;;;;;2098073;28;20032;-70
2021/12/20 04:43:59;;;;;;;10.68;2.50;;;1.20;99.90;;;;;;2099432;28;20514;-70
2021/12/20 04:44:59;;;;;;;10.23;2.80;;;1.20;99.90;;;;;;2099775;28;20033;-71
2021/12/20 04:46:00;;;;;;;6.70;2.40;;;1.20;99.90;;;;;;2100902;28;20021;-70
2021/12/20 04:47:01;;;;;;;10.73;2.65;;;1.20;99.90;;;;;;2100077;28;20064;-69
2021/12/20 04:48:03;;;;;;;5.20;2.00;;;1.20;99.90;;;;;;2099770;28;20028;-70
2021/12/20 04:49:04;;;;;;;10.77;2.60;;;1.20;99.90;;;;;;2099964;28;20044;-70
2021/12/20 04:50:05;;;;;;;8.20;2.58;;;1.20;99.90;;;;;;2098801;28;20719;-70
2021/12/20 04:51:06;;;;;;;8.15;2.40;;;1.10;99.90;;;;;;2101024;28;20226;-70
2021/12/20 04:52:07;;;;;;;7.13;2.45;;;1.10;99.90;;;;;;2097420;28;20103;-70
2021/12/20 04:53:07;;;;;;;9.23;2.60;;;1.10;99.90;;;;;;2097801;28;20548;-70
2021/12/20 04:54:08;;;;;;;8.13;2.58;;;1.20;99.90;;;;;;2097665;28;20036;-70
2021/12/20 04:55:11;;;;;;;8.98;2.58;;;1.20;99.90;;;;;;2097749;28;20024;-70
2021/12/20 04:56:12;;;;;;;7.88;2.40;;;1.20;99.90;;;;;;2097586;28;20016;-69
2021/12/20 04:57:13;;;;;;;8.38;2.30;;;1.20;99.90;;;;;;2097737;28;20437;-69
2021/12/20 04:58:14;;;;;;;8.65;2.13;;;1.10;99.90;;;;;;2096581;28;20059;-69
2021/12/20 04:59:15;;;;;;;7.07;2.17;;;1.10;99.90;;;;;;2097111;28;20038;-69
2021/12/20 05:00:20;;;;;;;12.52;2.47;;;1.10;99.90;;;;;;2097570;28;20035;-70
2021/12/20 05:01:21;;;;;;;12.25;2.35;;;1.10;99.90;;;;;;2096918;28;20082;-70
2021/12/20 05:02:21;;;;;;;8.88;2.47;;;1.10;99.90;;;;;;2088435;28;20032;-70
2021/12/20 05:03:22;;;;;;;12.07;2.67;;;1.10;99.90;;;;;;2096982;28;20571;-70
2021/12/20 05:04:22;;;;;;;9.93;2.83;;;1.10;99.90;;;;;;2097614;28;20038;-69
2021/12/20 05:05:24;;;;;;;12.60;2.80;;;1.10;99.90;;;;;;2097715;28;20025;-69
2021/12/20 05:06:25;;;;;;;9.77;2.15;;;1.10;99.90;;;;;;2097570;28;20047;-70
2021/12/20 05:07:27;;;;;;;9.55;2.30;;;1.20;99.90;;;;;;2097661;28;20028;-70
2021/12/20 05:08:34;;;;;;;8.18;2.55;;;1.20;99.90;;;;;;2097033;28;20044;-69
2021/12/20 05:09:39;;;;;;;8.50;2.30;;;1.20;99.90;;;;;;2097717;28;20694;-69
2021/12/20 05:10:41;;;;;;;12.20;2.40;;;1.20;99.90;;;;;;2097404;28;20024;-69
2021/12/20 05:11:49;;;;;;;9.82;2.40;;;1.20;99.90;;;;;;2096649;28;20112;-70
2021/12/20 05:12:50;;;;;;;8.77;2.28;;;1.20;99.90;;;;;;2097018;28;20447;-70
2021/12/20 05:13:51;;;;;;;8.10;2.22;;;1.10;99.90;;;;;;2097708;28;20016;-70
2021/12/20 05:14:52;;;;;;;10.73;2.60;;;1.10;99.90;;;;;;2097105;28;20444;-69
2021/12/20 05:15:52;;;;;;;8.65;2.33;;;1.10;99.90;;;;;;2097036;28;20028;-69
2021/12/20 05:16:53;;;;;;;7.03;1.98;;;1.10;99.90;;;;;;2097631;28;20028;-70
2021/12/20 05:17:55;;;;;;;5.35;2.20;;;1.10;99.90;;;;;;2097161;28;20095;-70
2021/12/20 05:18:55;;;;;;;8.05;2.17;;;1.10;99.90;;;;;;2097661;28;20039;-69
2021/12/20 05:19:56;;;;;;;10.82;2.50;;;1.10;99.90;;;;;;2097141;28;20091;-69
2021/12/20 05:20:57;;;;;;;10.60;2.30;;;1.10;99.90;;;;;;2096912;28;20480;-69
2021/12/20 05:21:58;;;;;;;7.70;2.05;;;1.10;99.90;;;;;;2097070;28;20040;-69
2021/12/20 05:22:59;;;;;;;9.07;2.45;;;1.10;99.90;;;;;;2097530;28;20024;-69
2021/12/20 05:24:00;;;;;;;8.88;2.55;;;1.10;99.90;;;;;;2097515;28;20043;-69
2021/12/20 05:25:00;;;;;;;8.68;2.28;;;1.10;99.90;;;;;;2097590;28;20047;-69
2021/12/20 05:26:01;;;;;;;9.45;2.30;;;1.10;99.90;;;;;;2097333;28;20033;-70
2021/12/20 05:27:01;;;;;;;9.70;2.53;;;1.10;99.90;;;;;;2097270;28;20111;-70
2021/12/20 05:28:02;;;;;;;8.60;2.38;;;1.10;99.90;;;;;;2096821;28;20071;-70
2021/12/20 05:29:06;;;;;;;8.23;2.50;;;1.10;99.90;;;;;;2097307;28;20040;-69
2021/12/20 05:30:10;;;;;;;9.60;2.25;;;1.20;99.90;;;;;;2097407;28;20033;-70
2021/12/20 05:31:10;;;;;;;9.00;2.47;;;1.20;99.90;;;;;;2097340;28;20403;-69
2021/12/20 05:32:11;;;;;;;9.40;2.35;;;1.10;99.90;;;;;;2097130;28;20127;-69
2021/12/20 05:33:11;;;;;;;7.50;2.20;;;1.20;99.90;;;;;;2097415;28;20054;-69
2021/12/20 05:34:12;;;;;;;10.23;2.60;;;1.10;99.90;;;;;;2097466;28;20025;-69
2021/12/20 05:35:14;;;;;;;12.32;2.75;;;1.20;99.90;;;;;;2096667;28;20037;-69
2021/12/20 05:36:15;;;;;;;8.77;2.33;;;1.20;99.90;;;;;;2096628;28;20414;-69